createdAt,value
2022-09-23T00:04:23.308Z,8.49
2022-09-23T00:19:26.178Z,8.43
2022-09-23T00:34:30.659Z,8.39
2022-09-23T00:49:34.320Z,8.42
2022-09-23T01:04:45.441Z,8.32
2022-09-23T01:20:29.494Z,8.26
2022-09-23T01:35:46.859Z,8.28
2022-09-23T01:51:27.367Z,8.11
2022-09-23T02:06:37.921Z,8.09
2022-09-23T02:21:47.597Z,7.92
2022-09-23T02:37:09.139Z,7.79
2022-09-23T02:52:13.887Z,7.60
2022-09-23T03:07:34.157Z,7.54
2022-09-23T03:22:54.843Z,7.48
2022-09-23T03:38:17.468Z,7.42
2022-09-23T03:53:21.366Z,7.38
2022-09-23T04:08:24.906Z,7.21
2022-09-23T04:23:28.506Z,7.30
2022-09-23T04:38:31.936Z,7.34
2022-09-23T04:53:40.093Z,7.36
2022-09-23T05:08:47.751Z,7.50
2022-09-23T05:23:55.683Z,7.55
2022-09-23T05:38:59.704Z,7.39
2022-09-23T05:54:05.872Z,7.37
2022-09-23T06:09:13.618Z,7.64
2022-09-23T06:24:20.402Z,8.36
2022-09-23T06:39:25.145Z,9.40
2022-09-23T06:54:29.716Z,10.49
2022-09-23T07:09:33.227Z,11.59
2022-09-23T07:24:37.905Z,11.73
2022-09-23T07:39:43.426Z,12.03
2022-09-23T07:54:49.158Z,13.85
2022-09-23T08:09:52.825Z,15.37
2022-09-23T08:24:57.215Z,16.63
2022-09-23T08:40:01.452Z,17.38
2022-09-23T08:55:06.403Z,18.19
2022-09-23T09:10:13.754Z,17.89
2022-09-23T09:25:33.503Z,17.00
2022-09-23T09:40:46.741Z,17.33
2022-09-23T09:56:05.591Z,18.88
2022-09-23T10:11:16.590Z,19.18
2022-09-23T10:26:32.608Z,20.16
2022-09-23T10:42:06.467Z,19.90
2022-09-23T10:57:38.698Z,19.25
2022-09-23T11:13:08.481Z,20.45
2022-09-23T11:28:36.163Z,19.70
2022-09-23T11:43:42.728Z,18.58
2022-09-23T11:59:03.730Z,18.01
2022-09-23T12:14:19.691Z,18.22
2022-09-23T12:44:45.580Z,19.47
2022-09-23T12:59:51.780Z,20.83
2022-09-23T13:15:01.011Z,20.95
2022-09-23T13:30:26.913Z,20.61
2022-09-23T13:45:34.223Z,24.54
2022-09-23T14:00:38.951Z,29.69
2022-09-23T14:15:45.110Z,34.41
2022-09-23T14:30:50.366Z,37.43
2022-09-23T14:45:58.703Z,34.44
2022-09-23T15:01:02.677Z,28.24
2022-09-23T15:16:07.058Z,25.94
2022-09-23T15:31:13.392Z,26.66
2022-09-23T15:46:22.701Z,22.88
2022-09-23T16:01:33.736Z,21.79
2022-09-23T16:16:37.923Z,20.33
2022-09-23T16:31:42.127Z,18.68
2022-09-23T16:46:46.726Z,16.51
2022-09-23T17:02:09.211Z,15.26
2022-09-23T17:17:13.663Z,14.29
2022-09-23T17:32:18.812Z,13.78
2022-09-23T17:47:23.951Z,13.69
2022-09-23T18:02:27.542Z,13.83
2022-09-23T18:17:31.010Z,13.49
2022-09-23T18:32:34.672Z,13.54
2022-09-23T18:47:58.568Z,13.44
2022-09-23T19:03:02.350Z,13.35
2022-09-23T19:18:06.111Z,13.27
2022-09-23T19:33:10.287Z,13.18
2022-09-23T19:48:14.512Z,13.07
2022-09-23T20:03:21.452Z,13.00
2022-09-23T20:18:25.394Z,12.79
2022-09-23T20:33:31.443Z,12.50
2022-09-23T20:48:35.170Z,12.05
2022-09-23T21:03:43.681Z,11.67
2022-09-23T21:18:48.496Z,11.29
2022-09-23T21:33:57.066Z,11.10
2022-09-23T21:49:02.494Z,10.66
2022-09-23T22:04:15.229Z,10.55
2022-09-23T22:19:19.141Z,10.46
2022-09-23T22:34:48.487Z,10.30
2022-09-23T22:49:54.716Z,10.12
2022-09-23T23:28:14.575Z,9.65
2022-09-23T23:43:19.761Z,9.56
2022-09-23T23:58:22.915Z,9.41
